Woodbury, New Jersey
Current Conditions -  °F | °C
As of 9:54 AM on Friday 31 Oct 2014 (Local Time) from KPHL Reporting Station
Broken Clouds Broken Clouds  
Wind Chill: 45°   Ceiling: 25000
Heat Index: 49°   Visibility: 10mi
Dew Point: 36°   Wind: 8mph
Humidity: 61%   Direction: 50°NE
Pressure: 30"   Gusts: NA
Location:  39.84°N, 75.15°W
Report Text: KPHL 311354Z 05007KT 10SM FEW055 BKN250 09/02 A3000 RMK AO2 SLP160 T00940022
Loading
Personal Weather Stations






























Interactive Weather Map
Tropical Storm Tracking
New forecast layout! Learn more

10-Day Weather Forecast

Advertisements
Track Severe Weather on mobile